Time;durP1;ratioP1;P1;durP2;ratioP2;P2;SDS_P1;SDS_P2;PMS_P1;PMS_P2;Temp;Humidity;BMP_temperature;BMP_pressure;BME280_temperature;BME280_humidity;BME280_pressure;Samples;Min_cycle;Max_cycle;Signal;HPM_P1;HPM_P2
2023/09/07 00:01:00;;;;;;;73.80;45.78;;;;;;;23.96;88.99;101444.47;7356168;19;20019;-66
2023/09/07 00:03:28;;;;;;;78.93;48.33;;;;;;;23.96;90.09;101444.47;7355451;19;20869;-67
2023/09/07 00:05:55;;;;;;;77.03;45.05;;;;;;;23.94;89.93;101442.00;7352665;19;20018;-68
2023/09/07 00:08:25;;;;;;;79.00;49.63;;;;;;;23.90;89.58;101440.81;7355172;19;21102;-67
2023/09/07 00:10:52;;;;;;;75.90;47.83;;;;;;;23.86;89.65;101439.63;7348042;19;20026;-66
2023/09/07 00:13:20;;;;;;;83.30;49.70;;;;;;;23.81;89.13;101432.25;7354074;19;20014;-68
2023/09/07 00:15:47;;;;;;;78.25;49.20;;;;;;;23.82;89.88;101433.88;7357485;19;20031;-66
2023/09/07 00:18:15;;;;;;;84.30;49.15;;;;;;;23.81;90.13;101431.41;7354882;19;20006;-68
2023/09/07 00:20:46;;;;;;;89.53;52.30;;;;;;;23.81;89.69;101444.88;7354702;19;20025;-65
2023/09/07 00:23:13;;;;;;;82.65;49.58;;;;;;;23.76;90.29;101439.34;7352628;19;20025;-66
2023/09/07 00:25:40;;;;;;;83.28;50.75;;;;;;;23.72;90.21;101438.16;7358623;19;20089;-65
2023/09/07 00:28:08;;;;;;;86.65;51.67;;;;;;;23.69;90.61;101446.63;7364252;19;20038;-66
2023/09/07 00:30:35;;;;;;;88.97;51.90;;;;;;;23.64;90.53;101439.25;7363182;19;20723;-65
2023/09/07 00:33:03;;;;;;;82.38;50.00;;;;;;;23.59;90.58;101431.03;7361318;19;20463;-66
2023/09/07 00:35:30;;;;;;;78.38;48.47;;;;;;;23.57;91.21;101430.44;7355568;19;21846;-67
2023/09/07 00:37:58;;;;;;;83.05;51.63;;;;;;;23.56;90.97;101433.38;7357849;19;20018;-67
2023/09/07 00:40:26;;;;;;;84.35;50.45;;;;;;;23.51;90.90;101436.72;7359744;19;20011;-67
2023/09/07 00:42:54;;;;;;;85.80;50.90;;;;;;;23.48;91.46;101436.31;7362245;19;20014;-66
2023/09/07 00:45:21;;;;;;;84.70;53.08;;;;;;;23.49;91.66;101435.28;7360901;19;20015;-66
2023/09/07 00:47:49;;;;;;;81.75;51.45;;;;;;;23.46;91.57;101438.44;7360135;19;20018;-69
2023/09/07 00:50:16;;;;;;;82.10;50.20;;;;;;;23.39;91.81;101431.22;7360457;19;20093;-67
2023/09/07 00:52:46;;;;;;;80.10;49.83;;;;;;;23.36;91.89;101423.63;7363548;19;20492;-67
2023/09/07 00:55:13;;;;;;;75.80;48.25;;;;;;;23.34;92.18;101419.50;7360348;19;20034;-65
2023/09/07 00:57:42;;;;;;;83.20;50.83;;;;;;;23.32;92.08;101417.03;7359555;19;20471;-67
2023/09/07 01:00:11;;;;;;;79.03;48.13;;;;;;;23.32;91.83;101414.34;7359904;19;20014;-67
2023/09/07 01:02:39;;;;;;;80.82;49.15;;;;;;;23.32;92.05;101424.25;7358835;19;20098;-65
2023/09/07 01:05:07;;;;;;;73.93;47.22;;;;;;;23.32;91.54;101414.34;7357433;19;20021;-66
2023/09/07 01:07:37;;;;;;;85.32;48.15;;;;;;;23.26;91.35;101414.44;7362806;19;20388;-67
2023/09/07 01:10:06;;;;;;;75.47;46.80;;;;;;;23.24;91.75;101414.63;7356495;19;20142;-67
2023/09/07 01:12:34;;;;;;;74.90;48.08;;;;;;;23.22;91.66;101419.41;7364407;19;20045;-67
2023/09/07 01:15:04;;;;;;;72.15;45.15;;;;;;;23.19;92.66;101419.03;7362346;19;20094;-67
2023/09/07 01:17:33;;;;;;;68.75;44.17;;;;;;;23.16;92.44;101412.22;7362948;19;20484;-68
2023/09/07 01:20:06;;;;;;;73.38;43.45;;;;;;;23.16;92.48;101422.16;7356000;19;20112;-67
2023/09/07 01:22:34;;;;;;;74.90;44.53;;;;;;;23.15;92.87;101423.19;7361166;19;20018;-67
2023/09/07 01:25:02;;;;;;;65.22;42.15;;;;;;;23.15;92.32;101424.03;7360535;19;20569;-70
2023/09/07 01:27:29;;;;;;;68.22;41.75;;;;;;;23.15;92.68;101421.34;7359514;19;20034;-68
2023/09/07 01:29:57;;;;;;;71.15;43.67;;;;;;;23.15;92.28;101423.19;7361352;19;20077;-67
2023/09/07 01:32:26;;;;;;;64.60;41.63;;;;;;;23.12;91.74;101421.75;7357961;19;20259;-67
2023/09/07 01:34:57;;;;;;;70.28;41.83;;;;;;;23.12;92.00;101420.94;7354181;19;20056;-66
2023/09/07 01:37:25;;;;;;;64.88;41.60;;;;;;;23.11;92.26;101416.63;7353514;19;20019;-67
2023/09/07 01:39:52;;;;;;;63.85;39.65;;;;;;;23.05;92.55;101410.28;7355410;19;20027;-67
2023/09/07 01:42:21;;;;;;;65.90;41.22;;;;;;;23.00;92.12;101413.63;7354627;19;20026;-66
2023/09/07 01:44:49;;;;;;;63.70;40.35;;;;;;;23.00;92.46;101419.00;7356035;19;20022;-67
2023/09/07 01:47:16;;;;;;;67.00;43.38;;;;;;;22.98;92.39;101409.50;7358982;19;20605;-67
2023/09/07 01:49:44;;;;;;;63.17;39.63;;;;;;;22.99;92.38;101409.28;7359189;19;20044;-66
2023/09/07 01:52:11;;;;;;;61.25;38.90;;;;;;;22.96;92.62;101414.25;7357859;19;20015;-67
2023/09/07 01:54:38;;;;;;;60.53;37.75;;;;;;;22.92;92.50;101408.53;7360725;19;20014;-67
2023/09/07 01:57:06;;;;;;;57.38;38.17;;;;;;;22.90;92.77;101410.63;7359477;19;20102;-67
2023/09/07 01:59:33;;;;;;;57.60;35.83;;;;;;;22.87;93.15;101415.59;7356064;19;20047;-67
2023/09/07 02:02:00;;;;;;;56.88;36.13;;;;;;;22.87;92.93;101418.28;7360523;19;20390;-66
2023/09/07 02:04:27;;;;;;;58.15;37.42;;;;;;;22.86;92.44;101413.94;7355987;19;20035;-66
2023/09/07 02:06:55;;;;;;;59.97;38.53;;;;;;;22.86;92.28;101414.75;7361949;19;20033;-66
2023/09/07 02:09:22;;;;;;;58.95;37.47;;;;;;;22.83;92.83;101400.97;7359115;19;20030;-66
2023/09/07 02:11:50;;;;;;;57.92;37.22;;;;;;;22.83;92.96;101399.09;7359200;19;20046;-66
2023/09/07 02:14:17;;;;;;;59.67;37.92;;;;;;;22.81;92.38;101389.63;7358932;19;20016;-66
2023/09/07 02:16:44;;;;;;;55.22;36.20;;;;;;;22.80;92.63;101388.00;7357298;19;20042;-67
2023/09/07 02:19:12;;;;;;;63.20;39.10;;;;;;;22.76;92.52;101384.91;7358219;19;20063;-66
2023/09/07 02:21:40;;;;;;;55.33;39.13;;;;;;;22.76;92.42;101384.91;7360365;19;20078;-66
2023/09/07 02:24:07;;;;;;;58.95;39.17;;;;;;;22.76;92.29;101389.44;7360405;19;20014;-66
2023/09/07 02:26:35;;;;;;;59.50;40.35;;;;;;;22.74;91.64;101386.19;7357029;19;20038;-66
2023/09/07 02:29:06;;;;;;;61.55;41.72;;;;;;;22.70;91.75;101380.41;7360838;19;20014;-67
2023/09/07 02:31:33;;;;;;;61.47;39.40;;;;;;;22.63;92.35;101374.25;7357507;19;20015;-66
2023/09/07 02:34:01;;;;;;;60.05;38.15;;;;;;;22.60;92.39;101377.38;7359829;19;20844;-68
2023/09/07 02:36:29;;;;;;;57.80;39.13;;;;;;;22.58;92.83;101382.13;7352994;19;21593;-66
2023/09/07 02:38:56;;;;;;;59.72;39.25;;;;;;;22.58;92.72;101374.09;7358053;19;20549;-67
2023/09/07 02:41:24;;;;;;;58.42;39.40;;;;;;;22.57;92.39;101377.81;7360168;19;20006;-66
2023/09/07 02:43:51;;;;;;;66.45;42.92;;;;;;;22.54;92.62;101371.03;7360670;19;20476;-66
2023/09/07 02:46:19;;;;;;;62.45;40.05;;;;;;;22.51;92.57;101376.81;7357375;19;20014;-66
2023/09/07 02:48:46;;;;;;;59.78;40.13;;;;;;;22.49;93.07;101362.81;7357079;19;20023;-66
2023/09/07 02:51:14;;;;;;;57.72;38.70;;;;;;;22.45;93.10;101372.31;7356502;19;20019;-67
2023/09/07 02:53:41;;;;;;;58.50;38.85;;;;;;;22.42;92.98;101370.06;7359845;19;20014;-66
2023/09/07 02:56:10;;;;;;;64.85;39.90;;;;;;;22.41;93.73;101370.28;7359356;19;20681;-67
2023/09/07 02:58:37;;;;;;;58.53;39.05;;;;;;;22.40;93.74;101374.03;7358610;19;21474;-67
2023/09/07 03:01:08;;;;;;;63.90;39.80;;;;;;;22.39;93.87;101373.22;7351685;19;20022;-66
2023/09/07 03:03:36;;;;;;;66.82;42.08;;;;;;;22.41;93.36;101373.78;7359121;19;20699;-66
2023/09/07 03:06:14;;;;;;;66.57;42.05;;;;;;;22.41;92.89;101368.44;7356305;19;20010;-65
2023/09/07 03:08:41;;;;;;;60.72;40.33;;;;;;;22.36;92.92;101370.94;7357689;19;20025;-68
2023/09/07 03:11:09;;;;;;;64.88;42.30;;;;;;;22.26;93.37;101373.28;7354839;19;20036;-66
2023/09/07 03:13:37;;;;;;;63.97;42.28;;;;;;;22.24;94.08;101371.88;7356471;19;20042;-66
2023/09/07 03:16:05;;;;;;;63.60;42.25;;;;;;;22.22;93.48;101364.03;7357110;19;20022;-66
2023/09/07 03:18:33;;;;;;;63.55;41.92;;;;;;;22.18;93.86;101365.50;7355751;19;20131;-67
2023/09/07 03:21:02;;;;;;;64.03;41.70;;;;;;;22.16;93.84;101359.53;7351947;19;20019;-68
2023/09/07 03:23:31;;;;;;;63.92;42.08;;;;;;;22.17;94.09;101355.81;7357549;19;20081;-66
2023/09/07 03:25:59;;;;;;;64.80;41.65;;;;;;;22.15;94.39;101353.34;7354092;19;20147;-65
2023/09/07 03:28:27;;;;;;;64.60;42.42;;;;;;;22.15;93.77;101347.16;7356622;19;20021;-67
2023/09/07 03:30:55;;;;;;;59.60;40.83;;;;;;;22.17;94.08;101355.81;7355909;19;20337;-66
2023/09/07 03:33:23;;;;;;;65.13;41.80;;;;;;;22.18;93.30;101355.59;7355667;19;20179;-66
2023/09/07 03:35:52;;;;;;;60.55;41.70;;;;;;;22.12;93.43;101348.41;7355143;19;20463;-67
2023/09/07 03:38:20;;;;;;;63.15;42.08;;;;;;;22.09;93.85;101346.19;7352450;19;20014;-68
2023/09/07 03:40:47;;;;;;;64.20;41.72;;;;;;;22.04;94.25;101351.38;7355572;19;21886;-66
2023/09/07 03:43:14;;;;;;;61.55;40.80;;;;;;;22.01;93.79;101357.13;7357514;19;20015;-67
2023/09/07 03:45:41;;;;;;;56.50;37.58;;;;;;;22.00;94.62;101350.13;7354765;19;20109;-66
2023/09/07 03:48:09;;;;;;;66.35;40.10;;;;;;;21.98;94.74;101351.41;7356556;19;20020;-66
2023/09/07 03:50:38;;;;;;;61.28;39.42;;;;;;;21.97;94.25;101347.88;7354531;19;20014;-66
2023/09/07 03:53:05;;;;;;;60.92;37.40;;;;;;;21.95;94.75;101347.28;7357224;19;20010;-70
2023/09/07 03:55:41;;;;;;;57.97;39.58;;;;;;;21.92;95.12;101344.16;7354665;19;20006;-66
2023/09/07 03:58:11;;;;;;;59.95;40.03;;;;;;;21.93;94.94;101346.66;7357244;19;20336;-69
2023/09/07 04:00:40;;;;;;;56.33;37.70;;;;;;;21.96;95.20;101350.78;7355017;19;20019;-67
2023/09/07 04:03:08;;;;;;;55.47;39.25;;;;;;;22.00;94.66;101346.63;7360738;19;20014;-66
2023/09/07 04:05:38;;;;;;;61.60;38.88;;;;;;;21.99;94.32;101340.44;7363394;19;20114;-66
2023/09/07 04:08:07;;;;;;;58.60;40.25;;;;;;;21.98;93.92;101346.03;7358699;19;20592;-67
2023/09/07 04:10:38;;;;;;;59.75;40.17;;;;;;;21.97;93.85;101350.56;7361561;19;20340;-68
2023/09/07 04:13:06;;;;;;;57.75;40.78;;;;;;;21.94;94.48;101348.28;7361325;19;20106;-67
2023/09/07 04:15:42;;;;;;;55.58;40.22;;;;;;;21.94;94.62;101345.63;7362459;19;20808;-67
2023/09/07 04:18:12;;;;;;;57.58;39.05;;;;;;;21.92;94.71;101350.34;7360818;19;20014;-65
2023/09/07 04:20:40;;;;;;;57.67;39.50;;;;;;;21.93;94.87;101348.50;7360287;19;20041;-67
2023/09/07 04:23:07;;;;;;;52.97;37.00;;;;;;;21.94;94.52;101339.47;7361689;19;20019;-67
2023/09/07 04:25:35;;;;;;;56.85;38.35;;;;;;;21.93;94.62;101346.66;7362762;19;20020;-67
2023/09/07 04:28:03;;;;;;;62.13;41.05;;;;;;;21.95;94.93;101338.41;7361980;19;20093;-65
2023/09/07 04:30:30;;;;;;;58.50;39.78;;;;;;;21.95;94.61;101333.88;7362730;19;20640;-67
2023/09/07 04:32:58;;;;;;;65.55;40.72;;;;;;;21.94;94.55;101332.22;7362389;19;20082;-65
2023/09/07 04:35:30;;;;;;;61.10;41.30;;;;;;;21.95;94.77;101336.53;7360362;19;20010;-66
2023/09/07 04:37:58;;;;;;;63.20;40.78;;;;;;;21.96;94.55;101340.88;7358264;19;20025;-66
2023/09/07 04:40:25;;;;;;;75.50;43.65;;;;;;;21.95;94.30;101339.22;7355057;19;20040;-66
2023/09/07 04:42:53;;;;;;;60.42;41.05;;;;;;;21.94;94.17;101329.53;7360850;19;20589;-67
2023/09/07 04:45:20;;;;;;;60.67;41.40;;;;;;;21.93;94.48;101327.06;7362194;19;20018;-65
2023/09/07 04:47:50;;;;;;;60.35;40.50;;;;;;;21.92;95.01;101312.84;7360521;19;20114;-66
2023/09/07 04:50:17;;;;;;;61.55;39.35;;;;;;;21.95;94.44;101315.09;7362565;19;20593;-67
2023/09/07 04:52:45;;;;;;;64.60;42.22;;;;;;;21.95;94.32;101315.09;7361171;19;20015;-66
2023/09/07 04:55:12;;;;;;;66.65;43.40;;;;;;;21.94;94.38;101308.09;7359604;19;20010;-66
2023/09/07 04:57:40;;;;;;;62.58;42.25;;;;;;;21.92;94.20;101309.34;7358304;19;20833;-66
2023/09/07 05:00:09;;;;;;;62.17;42.13;;;;;;;21.92;93.95;101301.28;7361397;19;20007;-66
2023/09/07 05:02:40;;;;;;;63.88;41.65;;;;;;;21.90;94.15;101298.81;7362001;19;20928;-67
2023/09/07 05:05:08;;;;;;;70.10;43.05;;;;;;;21.90;94.02;101300.66;7362496;19;20031;-66
2023/09/07 05:07:35;;;;;;;63.47;42.30;;;;;;;21.87;94.27;101299.25;7362470;19;20270;-66
2023/09/07 05:10:03;;;;;;;66.25;45.17;;;;;;;21.85;94.11;101312.03;7358453;19;20019;-66
2023/09/07 05:12:31;;;;;;;66.75;44.63;;;;;;;21.79;94.36;101315.56;7360062;19;20024;-64
2023/09/07 05:14:59;;;;;;;62.72;42.53;;;;;;;21.78;94.58;101311.28;7364438;19;21591;-66
2023/09/07 05:17:27;;;;;;;66.15;45.10;;;;;;;21.73;94.62;101313.78;7360902;19;20086;-67
2023/09/07 05:19:54;;;;;;;65.10;42.83;;;;;;;21.71;94.82;101311.31;7358904;19;20717;-68
2023/09/07 05:22:22;;;;;;;63.15;42.50;;;;;;;21.72;95.59;101317.47;7358154;19;20023;-67
2023/09/07 05:24:49;;;;;;;66.28;42.88;;;;;;;21.74;95.59;101323.44;7357571;19;20022;-68
2023/09/07 05:27:17;;;;;;;63.67;43.28;;;;;;;21.75;95.40;101314.38;7362405;19;20581;-66
2023/09/07 05:29:44;;;;;;;67.93;45.92;;;;;;;21.74;95.12;101332.28;7361700;19;20015;-67
2023/09/07 05:32:13;;;;;;;62.13;42.33;;;;;;;21.75;94.84;101333.13;7358482;19;20022;-66
2023/09/07 05:34:40;;;;;;;69.90;44.95;;;;;;;21.76;94.79;101324.06;7360459;19;20862;-67
2023/09/07 05:37:07;;;;;;;66.82;43.95;;;;;;;21.77;94.83;101323.03;7359894;19;20010;-66
2023/09/07 05:39:35;;;;;;;64.45;43.63;;;;;;;21.77;94.65;101329.22;7357210;19;20014;-67
2023/09/07 05:42:02;;;;;;;73.63;46.03;;;;;;;21.79;95.03;101331.66;7357294;19;20689;-67
2023/09/07 05:44:30;;;;;;;74.63;48.50;;;;;;;21.77;94.94;101329.22;7362930;19;20021;-67
2023/09/07 05:46:58;;;;;;;71.95;47.10;;;;;;;21.77;94.59;101326.53;7359873;19;20094;-65
2023/09/07 05:49:26;;;;;;;73.35;47.00;;;;;;;21.74;94.65;101324.25;7357236;19;20006;-67
2023/09/07 05:51:54;;;;;;;76.18;48.72;;;;;;;21.76;94.23;101340.13;7359474;19;20025;-67
2023/09/07 05:54:21;;;;;;;73.65;46.88;;;;;;;21.75;94.49;101330.44;7361026;19;20083;-66
2023/09/07 05:56:49;;;;;;;72.72;46.53;;;;;;;21.77;94.16;101345.28;7358822;19;20047;-67
2023/09/07 05:59:18;;;;;;;76.65;48.45;;;;;;;21.78;94.24;101338.06;7363137;19;20158;-66
2023/09/07 06:01:46;;;;;;;72.93;47.60;;;;;;;21.79;94.48;101339.69;7358075;19;20018;-66
2023/09/07 06:04:14;;;;;;;76.32;47.20;;;;;;;21.77;93.95;101334.56;7356735;19;20010;-66
2023/09/07 06:06:42;;;;;;;79.35;48.42;;;;;;;21.80;94.24;101333.31;7359162;19;20049;-66
2023/09/07 06:09:10;;;;;;;73.97;48.78;;;;;;;21.78;93.87;101338.06;7360669;19;20360;-65
2023/09/07 06:11:39;;;;;;;74.55;46.55;;;;;;;21.77;93.77;101334.56;7359798;19;20665;-69
2023/09/07 06:14:07;;;;;;;72.85;46.90;;;;;;;21.81;93.64;101329.59;7362865;19;20022;-67
2023/09/07 06:16:35;;;;;;;71.45;47.42;;;;;;;21.81;93.56;101336.81;7356600;19;20018;-67
2023/09/07 06:19:02;;;;;;;71.93;46.72;;;;;;;21.82;94.09;101335.78;7361411;19;20017;-67
2023/09/07 06:21:29;;;;;;;73.45;47.00;;;;;;;21.83;94.03;101338.25;7357570;19;20070;-67
2023/09/07 06:23:57;;;;;;;69.28;44.08;;;;;;;21.85;93.83;101338.84;7358988;19;20117;-66
2023/09/07 06:26:25;;;;;;;68.45;44.35;;;;;;;21.85;93.51;101333.47;7347915;19;20101;-66
2023/09/07 06:28:52;;;;;;;65.60;42.95;;;;;;;21.87;92.97;101344.00;7359291;19;20014;-68
2023/09/07 06:31:19;;;;;;;66.72;42.50;;;;;;;21.88;93.02;101335.75;7357496;19;20014;-68
2023/09/07 06:33:47;;;;;;;66.50;42.53;;;;;;;21.89;93.30;101331.22;7356181;19;20321;-66
2023/09/07 06:36:14;;;;;;;64.70;41.15;;;;;;;21.91;93.14;101337.16;7355758;19;20021;-67
2023/09/07 06:38:42;;;;;;;67.57;44.83;;;;;;;21.98;93.22;101338.00;7358699;19;20014;-66
2023/09/07 06:41:09;;;;;;;68.93;41.67;;;;;;;22.00;93.14;101341.25;7350081;19;20040;-68
2023/09/07 06:43:37;;;;;;;67.68;42.67;;;;;;;22.01;92.70;101345.59;7361503;19;20339;-67
2023/09/07 06:46:07;;;;;;;64.80;40.47;;;;;;;22.03;92.20;101346.22;7356676;19;20030;-67
2023/09/07 06:48:35;;;;;;;58.97;39.63;;;;;;;22.03;91.84;101338.16;7356043;19;20404;-66
2023/09/07 06:51:05;;;;;;;75.68;43.05;;;;;;;22.07;91.12;101342.06;7354134;19;20054;-66
2023/09/07 06:53:32;;;;;;;63.85;41.05;;;;;;;22.13;91.38;101343.88;7356420;19;20021;-67
2023/09/07 06:56:20;;;;;;;57.47;38.30;;;;;;;22.13;91.40;101342.03;7357899;19;20038;-66
2023/09/07 06:58:48;;;;;;;56.78;38.75;;;;;;;22.18;90.72;101349.41;7358999;19;20011;-68
2023/09/07 07:01:15;;;;;;;59.92;38.35;;;;;;;22.16;91.31;101352.31;7356031;19;20054;-67
2023/09/07 07:03:43;;;;;;;61.60;39.42;;;;;;;22.15;91.37;101339.94;7356110;19;20018;-65
2023/09/07 07:06:11;;;;;;;58.85;38.83;;;;;;;22.17;91.45;101347.75;7354124;19;20010;-67
2023/09/07 07:08:38;;;;;;;62.00;37.75;;;;;;;22.18;91.14;101344.06;7357480;19;20037;-66
2023/09/07 07:11:05;;;;;;;58.88;37.33;;;;;;;22.21;91.03;101348.97;7355555;19;20006;-65
2023/09/07 07:13:34;;;;;;;59.63;38.13;;;;;;;22.26;90.74;101349.16;7356212;19;20650;-66
2023/09/07 07:16:02;;;;;;;58.88;38.28;;;;;;;22.31;90.39;101352.00;7354722;19;20014;-67
2023/09/07 07:18:29;;;;;;;55.63;36.33;;;;;;;22.32;90.65;101355.50;7356652;19;20143;-67
2023/09/07 07:20:57;;;;;;;54.40;36.42;;;;;;;22.30;90.37;101344.19;7350423;19;20392;-66
2023/09/07 07:23:24;;;;;;;52.80;35.65;;;;;;;22.28;90.58;101344.41;7355265;19;20018;-70
2023/09/07 07:25:52;;;;;;;50.58;35.22;;;;;;;22.30;90.46;101352.22;7357561;19;20021;-67
2023/09/07 07:28:21;;;;;;;56.63;35.33;;;;;;;22.34;90.16;101337.34;7359398;19;20022;-66
2023/09/07 07:30:52;;;;;;;51.60;34.95;;;;;;;22.39;90.24;101348.25;7358168;19;20033;-68
2023/09/07 07:33:20;;;;;;;51.15;34.22;;;;;;;22.42;90.42;101339.75;7359579;19;20022;-68
2023/09/07 07:35:48;;;;;;;52.70;36.88;;;;;;;22.48;89.21;101349.63;7355409;19;20616;-68
2023/09/07 07:38:15;;;;;;;54.28;37.72;;;;;;;22.52;88.75;101348.13;7365262;19;20589;-67
2023/09/07 07:40:43;;;;;;;54.25;34.83;;;;;;;22.51;89.47;101349.16;7356812;19;20018;-66
2023/09/07 07:43:12;;;;;;;54.95;35.60;;;;;;;22.49;89.79;101348.56;7354852;19;20030;-66
2023/09/07 07:45:41;;;;;;;56.30;36.45;;;;;;;22.47;89.31;101339.91;7350905;19;20019;-66
2023/09/07 07:48:10;;;;;;;53.13;35.38;;;;;;;22.48;90.31;101339.72;7360439;19;20059;-66
2023/09/07 07:50:39;;;;;;;55.30;36.13;;;;;;;22.50;90.06;101339.50;7356592;19;20018;-68
2023/09/07 07:53:07;;;;;;;56.33;36.00;;;;;;;22.52;89.45;101343.59;7363464;19;20019;-70
2023/09/07 07:55:40;;;;;;;56.00;36.65;;;;;;;22.53;89.55;101347.09;7360154;19;20025;-67
2023/09/07 07:58:08;;;;;;;52.03;36.90;;;;;;;22.59;89.64;101341.69;7359214;19;20560;-66
2023/09/07 08:00:37;;;;;;;55.22;36.13;;;;;;;22.66;88.84;101352.34;7360553;19;21667;-68
2023/09/07 08:03:06;;;;;;;55.08;35.22;;;;;;;22.74;88.76;101343.25;7364201;19;20022;-66
2023/09/07 08:05:35;;;;;;;55.72;35.03;;;;;;;22.92;87.73;101340.59;7363872;19;20689;-67
2023/09/07 08:08:03;;;;;;;51.47;33.10;;;;;;;22.95;87.74;101346.34;7362232;19;20025;-67
2023/09/07 08:10:34;;;;;;;50.00;32.88;;;;;;;22.97;87.35;101348.78;7363804;19;20018;-67
2023/09/07 08:13:02;;;;;;;51.10;32.70;;;;;;;23.01;87.99;101339.25;7363779;19;20018;-67
2023/09/07 08:15:31;;;;;;;49.45;31.65;;;;;;;23.07;88.71;101346.41;7367281;19;20921;-67
2023/09/07 08:17:59;;;;;;;50.20;31.15;;;;;;;23.09;87.51;101340.84;7362066;19;20555;-66
2023/09/07 08:20:27;;;;;;;49.38;31.75;;;;;;;23.11;87.04;101344.13;7362983;19;20015;-66
2023/09/07 08:22:55;;;;;;;48.58;30.60;;;;;;;23.12;86.62;101343.88;7360899;19;20402;-66
2023/09/07 08:25:23;;;;;;;42.42;29.10;;;;;;;23.17;86.67;101345.91;7362320;19;20029;-67
2023/09/07 08:27:52;;;;;;;41.72;27.38;;;;;;;23.21;86.53;101337.16;7361399;19;20022;-67
2023/09/07 08:30:22;;;;;;;37.85;26.15;;;;;;;23.27;86.98;101340.84;7363972;19;20026;-67
2023/09/07 08:32:51;;;;;;;49.20;29.83;;;;;;;23.31;86.28;101339.38;7362301;19;20018;-67
2023/09/07 08:35:19;;;;;;;43.15;28.85;;;;;;;23.35;86.75;101341.38;7362795;19;20569;-66
2023/09/07 08:37:46;;;;;;;44.88;28.77;;;;;;;23.42;85.86;101341.28;7362516;19;20097;-68
2023/09/07 08:40:16;;;;;;;44.88;28.35;;;;;;;23.49;85.38;101341.25;7365309;19;20571;-67
2023/09/07 08:42:44;;;;;;;43.65;27.60;;;;;;;23.54;84.84;101344.91;7361132;19;20010;-61
2023/09/07 08:45:15;;;;;;;46.08;28.67;;;;;;;23.57;85.10;101344.44;7360022;19;20356;-59
2023/09/07 08:47:45;;;;;;;42.58;28.38;;;;;;;23.61;84.83;101342.13;7360186;19;20015;-61
2023/09/07 08:50:13;;;;;;;42.88;26.25;;;;;;;23.64;84.37;101345.19;7358753;19;20037;-61
2023/09/07 08:52:42;;;;;;;39.65;27.73;;;;;;;23.66;84.29;101345.78;7361395;19;20025;-60
2023/09/07 08:55:11;;;;;;;42.28;25.85;;;;;;;23.75;84.09;101351.66;7357063;19;20011;-60
2023/09/07 08:57:39;;;;;;;37.05;24.73;;;;;;;23.81;84.13;101348.06;7358121;19;20034;-60
2023/09/07 09:00:16;;;;;;;40.35;26.73;;;;;;;23.83;83.26;101349.47;7360546;19;20037;-61
2023/09/07 09:02:47;;;;;;;37.05;25.85;;;;;;;23.87;82.94;101345.28;7356886;19;20023;-59
2023/09/07 09:05:19;;;;;;;43.22;25.75;;;;;;;23.93;82.14;101340.84;7358913;19;20117;-61
2023/09/07 09:07:47;;;;;;;37.30;25.08;;;;;;;23.98;82.58;101338.31;7359794;19;20039;-61
2023/09/07 09:10:14;;;;;;;41.78;26.13;;;;;;;24.03;82.03;101337.63;7358665;19;20022;-60
2023/09/07 09:12:46;;;;;;;41.03;24.63;;;;;;;24.03;82.32;101330.38;7357385;19;20475;-60
2023/09/07 09:15:18;;;;;;;;;;;;;;;24.10;81.30;101339.19;7358038;19;20094;-60
2023/09/07 09:17:54;;;;;;;40.15;25.23;;;;;;;24.11;81.11;101326.56;7358522;19;19922;-60
2023/09/07 09:20:24;;;;;;;37.08;24.38;;;;;;;24.16;80.23;101330.19;7357856;19;20011;-59
2023/09/07 09:22:53;;;;;;;35.47;24.88;;;;;;;24.20;80.51;101331.41;7359229;19;21714;-60
2023/09/07 09:25:21;;;;;;;36.00;23.60;;;;;;;24.26;79.87;101324.28;7358319;19;20011;-62
2023/09/07 09:27:49;;;;;;;37.70;23.95;;;;;;;24.32;80.07;101322.53;7355242;19;20031;-61
2023/09/07 09:30:18;;;;;;;32.53;21.95;;;;;;;24.38;79.85;101321.63;7357477;19;20042;-60
2023/09/07 09:32:48;;;;;;;33.53;22.13;;;;;;;24.46;79.32;101322.09;7355747;19;21116;-59
2023/09/07 09:35:18;;;;;;;35.20;22.27;;;;;;;24.55;78.24;101311.78;7358010;19;20493;-61
2023/09/07 09:37:48;;;;;;;33.63;22.60;;;;;;;24.60;78.52;101322.69;7356707;19;20023;-60
2023/09/07 09:40:17;;;;;;;35.08;22.23;;;;;;;24.67;77.68;101312.63;7358837;19;20444;-59
2023/09/07 09:42:45;;;;;;;35.40;22.17;;;;;;;24.73;77.63;101314.41;7355380;19;20035;-61
2023/09/07 09:45:14;;;;;;;29.83;20.40;;;;;;;24.79;76.10;101315.34;7357502;19;21827;-61
2023/09/07 09:47:43;;;;;;;31.05;20.08;;;;;;;24.88;75.96;101312.09;7356291;19;20018;-61
2023/09/07 09:50:11;;;;;;;32.60;21.83;;;;;;;24.94;75.55;101308.41;7355223;19;20042;-62
2023/09/07 09:52:39;;;;;;;37.58;20.42;;;;;;;24.99;75.62;101303.16;7358523;19;20034;-60
2023/09/07 09:55:08;;;;;;;32.20;19.77;;;;;;;25.06;75.66;101311.09;7356577;19;20513;-59
2023/09/07 09:57:36;;;;;;;26.85;18.85;;;;;;;25.14;75.85;101305.38;7356487;19;20007;-60
2023/09/07 10:02:48;;;;;;;30.92;15.73;;;;;;;25.28;72.11;101309.44;7358760;19;20018;-61
2023/09/07 10:05:17;;;;;;;28.15;16.20;;;;;;;25.35;72.00;101307.41;7361056;19;20643;-60
2023/09/07 10:07:49;;;;;;;31.60;15.95;;;;;;;25.40;70.80;101304.81;7358375;19;20026;-60
2023/09/07 10:10:19;;;;;;;26.80;16.00;;;;;;;25.48;70.24;101303.63;7350629;19;20375;-60
2023/09/07 10:12:54;;;;;;;25.90;15.80;;;;;;;25.54;69.95;101305.38;7356007;19;20014;-60
2023/09/07 10:15:23;;;;;;;25.52;13.95;;;;;;;25.59;69.62;101302.00;7359274;19;20039;-61
2023/09/07 10:18:04;;;;;;;21.70;13.48;;;;;;;25.64;69.15;101304.78;7356058;19;20576;-61
2023/09/07 10:20:48;;;;;;;22.33;14.10;;;;;;;25.69;68.84;101307.59;7358006;19;20019;-61
2023/09/07 10:23:15;;;;;;;23.90;14.93;;;;;;;25.74;68.73;101300.41;7357221;19;20011;-59
2023/09/07 10:25:49;;;;;;;21.45;13.95;;;;;;;25.79;68.54;101291.59;7356392;19;20007;-60
2023/09/07 10:28:19;;;;;;;22.55;14.82;;;;;;;25.81;68.22;101294.84;7359899;19;20018;-60
2023/09/07 10:30:59;;;;;;;20.48;13.38;;;;;;;25.86;67.66;101294.94;7356407;19;20052;-62
2023/09/07 10:33:27;;;;;;;19.50;12.30;;;;;;;25.91;67.55;101284.25;7360036;19;20430;-61
2023/09/07 10:35:54;;;;;;;24.88;13.15;;;;;;;25.97;68.32;101284.09;7358624;19;20018;-61
2023/09/07 10:38:22;;;;;;;19.23;11.45;;;;;;;26.04;66.33;101286.66;7358155;19;20014;-60
2023/09/07 10:40:57;;;;;;;21.70;11.82;;;;;;;26.10;66.39;101282.97;7356123;19;20014;-60
2023/09/07 10:43:28;;;;;;;18.52;11.32;;;;;;;26.16;66.20;101275.78;7356377;19;20010;-59
2023/09/07 10:45:57;;;;;;;16.00;9.20;;;;;;;26.22;65.18;101277.50;7352898;19;20647;-61
2023/09/07 10:48:25;;;;;;;18.63;9.70;;;;;;;26.25;64.03;101279.75;7358422;19;20026;-61
2023/09/07 10:50:53;;;;;;;17.20;9.70;;;;;;;26.30;63.33;101279.81;7354617;19;20665;-60
2023/09/07 10:53:30;;;;;;;18.70;9.88;;;;;;;26.38;63.94;101271.31;7356839;19;20022;-59
2023/09/07 10:56:04;;;;;;;16.92;9.40;;;;;;;26.42;62.99;101268.91;7358564;19;20090;-61
2023/09/07 10:58:34;;;;;;;16.23;8.80;;;;;;;26.49;63.06;101270.41;7357835;19;20020;-60
2023/09/07 11:01:03;;;;;;;18.70;9.10;;;;;;;26.57;62.41;101264.56;7355752;19;20094;-61
2023/09/07 11:03:31;;;;;;;16.65;9.65;;;;;;;26.62;62.83;101270.03;7357557;19;20616;-60
2023/09/07 11:06:03;;;;;;;15.20;7.85;;;;;;;26.67;61.83;101264.72;7356939;19;20093;-61
2023/09/07 11:08:31;;;;;;;12.32;6.40;;;;;;;26.71;60.23;101263.19;7358061;19;20359;-59
2023/09/07 11:10:58;;;;;;;12.82;6.78;;;;;;;26.76;58.24;101265.94;7351543;19;20038;-60
2023/09/07 11:13:27;;;;;;;12.52;5.32;;;;;;;26.80;57.08;101263.56;7357571;19;20142;-60
2023/09/07 11:15:58;;;;;;;11.25;5.50;;;;;;;26.87;57.77;101260.72;7359018;19;20018;-58
2023/09/07 11:18:26;;;;;;;15.50;5.57;;;;;;;26.91;56.85;101261.84;7355245;19;20022;-60